Airfield :







YOU CAN JOIN US ON...

 
LOGIN :

Register | Disclaimer

   EN    FR    IT 

 









Legend :    VFR   Marginal VFR   IFR   Intensive IFR   Very Intensive IFR
Visi :
Ceiling :
>= 8 km
>= 3000ft
5 to 8 km
1000 to 3000 ft
1500m to 5 km
500 to 1000 ft
800 to 1500m
200 to 500 ft
< 800m
< 200 ft
Symbols :   Thunderstorms  Fog  Heavy snow  Heavy precipitations  Wind > 20 kt







- Airport Elevation : 122 ft
- IATA code : YTQ


CYTQ - Tasiujaq

CURRENT METAR :
  • 222000Z 24008KT 15SM FEW012 M21/M26 A3005 RMK SC1 SLP182

EXPIRED METARs :
  • 221900Z 26011KT 12SM FEW012 M21/M26 A3002 RMK SC1 SLP173
  • 221800Z 29024KT 12SM DRSN FEW020 M21/M25 A2995 RMK SC1 PRESFR SLP147
  • 221700Z 28019KT 15SM FEW022 M20/M25 A2994 RMK SC2 SLP146

TAF TAF CYTQ
Valid from the 22 at 14:00 until the 22 at 21:00 UTC


221338Z 2214/2221 32015KT P6SM SCT020
TEMPO 2214/2216 BKN012
BECMG 2216/2218 28015KT RMK NXT FCST WILL BE ISSUED AT 231345Z
CZUL FIR / North America



MET'MAP, your aeronautical weather chart ! - Copyright ORBIFLY December 2007 - Disclaimer

ORBIFLY MET'MAP TEAM :

Programming & Development : Alexandra Zaïnal
Concept & Development : Baudouin d'Aumeries
Co-Development & Prog : Marc-Olivier Méhu
Technical & hardware support : Manuel Goepfert

Contact : metmap@orbifly.com




SOURCES & CREDITS :

   NOAA